Indianapolis, Indiana
Traffic Map
Current Weather Conditions
Indianapolis, Indiana
Overcast
Overcast
25°
Feels Like: 14°
Wind Chill: 14° Ceiling: 7500
Heat Index: 25° Visibility: 10mi
Dew Point: 15° Wind: 12mph
Humidity: 66% Direction: 240° (WSW)
Pressure: 30.56in Gusts: 0mph
Raw Report DataKIND 101554Z 24010KT 10SM FEW020 OVC075 M04/M09 A3056 RMK AO2 SLP361 T10391094
Traffic Incident Summary
Active as of:
Severity:
Category:
InformationThere was an issue retrieving the traffic information for this location. Please try a different location or try again shortly.
Advertisements
Track Severe Weather on mobile